Historique des mesures à Cassis (13260), France
Quotidien Résumé Mars 13, 2018 Unités:  Métrique    US   Métrique/US
« Précédent (Jour)
Suivant (Jour) »
Quotidien Hebdomadaire Mensuel Annuel Période au choix
  Maximum: Minimum: Moyenne:
Température: TemperatureC °C 9.8 °C 11.3 °C
Point de rosée: DewpointC °C 3.3 °C 5 °C
Humidité: Humidity % 52 % 61 %
Vitesse du vent: 0 km/h 6.4 km/h 22.9 km/h
Rafales: 0 km/h - -
Vent:- - West
Pression: PressurehPa hPa 1007.3 hPa -
Précipitations: 0.0 mm    
Historical Graphs
 
 
Mesures pour : Mars 13, 2018
Heure Temperature Point de rosée Pression Vent Vitesse du vent Rafales Humidité Pluie (par heure) Conditions
TemperatureC °C DewpointC °C PressurehPa hPa Calm     Humidity % HourlyPrecipMM mm SoftwareType W/m2
00:11 10.9 °C 3.9 °C 1007.3 hPa WNW 39.4 km/h 39.4 km/h 62 % 0.0 mm open2300-1.11 W/m2
01:11 10.9 °C 3.9 °C 1007.7 hPa West 26.2 km/h 37 km/h 62 % 0.0 mm open2300-1.11 W/m2
02:11 10.4 °C 4.3 °C 1008.0 hPa WNW 29.5 km/h 43.5 km/h 66 % 0.0 mm open2300-1.11 W/m2
03:12 10.3 °C 3.8 °C 1007.7 hPa WNW 9.8 km/h 16.3 km/h 64 % 0.0 mm open2300-1.11 W/m2
04:12 9.8 °C 3.5 °C 1007.7 hPa WNW 30.7 km/h 30.7 km/h 65 % 0.0 mm open2300-1.11 W/m2
06:12 9.9 °C 4.3 °C 1009.0 hPa WSW 15.6 km/h 27.2 km/h 68 % 0.0 mm open2300-1.11 W/m2
07:12 9.8 °C 4.2 °C 1009.0 hPa SW 13.2 km/h 13.2 km/h 68 % 0.0 mm open2300-1.11 W/m2
09:12 10.6 °C 4.1 °C 1009.4 hPa NW 23.8 km/h 23.8 km/h 64 % 0.0 mm open2300-1.11 W/m2
10:11 11.1 °C 3.3 °C 1009.4 hPa NNW 15.6 km/h 41.7 km/h 59 % 0.0 mm open2300-1.11 W/m2
11:12 12.6 °C 3.7 °C 1009.4 hPa West 27.7 km/h 44.6 km/h 55 % 0.0 mm open2300-1.11 W/m2
12:12 13.8 °C 4.1 °C 1009.4 hPa WNW 45.9 km/h 45.9 km/h 52 % 0.0 mm open2300-1.11 W/m2
13:12 13.6 °C 5.2 °C 1009.0 hPa NNW 14.5 km/h 27.2 km/h 57 % 0.0 mm open2300-1.11 W/m2
14:12 13.8 °C 5.7 °C 1008.7 hPa NW 50.5 km/h 50.5 km/h 58 % 0.0 mm open2300-1.11 W/m2
15:12 14.1 °C 5.4 °C 1008.4 hPa WNW 6.9 km/h 19.6 km/h 56 % 0.0 mm open2300-1.11 W/m2
16:11 13.6 °C 6.0 °C 1008.4 hPa NW 12.7 km/h 12.7 km/h 60 % 0.0 mm open2300-1.11 W/m2
17:12 13.8 °C 5.7 °C 1008.0 hPa West 41.2 km/h 41.2 km/h 58 % 0.0 mm open2300-1.11 W/m2
18:12 13.1 °C 6.4 °C 1008.0 hPa West 32.3 km/h 32.3 km/h 64 % 0.0 mm open2300-1.11 W/m2
19:12 12.3 °C 7.0 °C 1008.4 hPa North 8 km/h 32.3 km/h 70 % 0.0 mm open2300-1.11 W/m2
20:11 12.0 °C 7.1 °C 1008.7 hPa West 20.3 km/h 20.3 km/h 72 % 0.0 mm open2300-1.11 W/m2
21:12 11.8 °C 7.3 °C 1009.0 hPa WNW 22 km/h 22 km/h 74 % 0.0 mm open2300-1.11 W/m2
22:12 11.5 °C 7.8 °C 1009.0 hPa WNW 31.9 km/h 31.9 km/h 78 % 0.0 mm open2300-1.11 W/m2
23:12 10.9 °C 7.4 °C 1009.0 hPa NNW 6.4 km/h 8 km/h 79 % 0.0 mm open2300-1.11 W/m2
Observations météo à CASSIS
WU-History script by Weather Underground - 1 mb